Terminal Aerodrome Forecast
Issued by NWS Cleveland, OH

Home | Current Version | Previous Version | Graphics & Text | Print | Product List | Glossary On
Versions: 1 2 3 4 5 6 7 8 9 10 11 12 13 14 15 16 17 18 19 20 21 22 23
000
FTUS41 KCLE 241700
TAFCAK
TAF
KCAK 241740Z 2418/2518 25010KT 4SM HZ OVC006
     FM242000 25010KT P6SM OVC008
     FM250700 26006KT P6SM VCSH OVC008
     FM251400 05006KT 1 1/2SM -SN BR OVC005=

USA.gov is the U.S. government's official web portal to all federal, state and local government web resources and services.